Time;durP1;ratioP1;P1;durP2;ratioP2;P2;SDS_P1;SDS_P2;PMS_P1;PMS_P2;Temp;Humidity;BMP_temperature;BMP_pressure;BME280_temperature;BME280_humidity;BME280_pressure;Samples;Min_cycle;Max_cycle;Signal;HPM_P1;HPM_P2
2021/06/05 00:02:17;;;;;;;1999.90;999.90;;;;;;;18.21;69.45;101552.75;15548497;28;20049;-63
2021/06/05 00:09:49;;;;;;;1999.90;999.90;;;;;;;18.07;69.32;101551.22;15547429;28;20145;-61
2021/06/05 00:17:24;;;;;;;1999.90;999.90;;;;;;;17.74;70.52;101542.28;15550179;28;20054;-62
2021/06/05 00:24:55;;;;;;;1999.90;999.90;;;;;;;17.84;69.88;101565.13;15547903;28;20037;-61
2021/06/05 00:32:28;;;;;;;1999.90;999.90;;;;;;;18.07;68.98;101570.16;15547351;28;20070;-62
2021/06/05 00:40:00;;;;;;;1999.90;999.90;;;;;;;17.88;69.42;101553.94;15551163;28;20442;-63
2021/06/05 00:47:33;;;;;;;1999.90;999.90;;;;;;;17.40;70.34;101552.16;15549625;28;20053;-62
2021/06/05 00:55:08;;;;;;;1999.90;999.90;;;;;;;17.22;70.87;101557.31;15593215;22;20349;-64
2021/06/05 01:02:42;;;;;;;1999.90;999.90;;;;;;;17.33;70.21;101554.78;15624908;28;20095;-64
2021/06/05 01:10:18;;;;;;;1999.90;999.90;;;;;;;17.27;70.41;101563.50;15591047;28;20058;-65
2021/06/05 01:17:56;;;;;;;1999.90;999.90;;;;;;;17.19;71.00;101550.34;15606632;28;20424;-64
2021/06/05 01:25:50;;;;;;;1999.90;999.90;;;;;;;17.13;71.25;101548.16;15624934;28;20091;-64
2021/06/05 01:33:25;;;;;;;1999.90;999.90;;;;;;;17.27;71.29;101540.94;15570614;28;20057;-64
2021/06/05 01:41:05;;;;;;;1999.90;999.90;;;;;;;17.07;71.87;101541.94;15605479;28;20656;-64
2021/06/05 01:48:38;;;;;;;1999.90;999.90;;;;;;;17.11;71.68;101547.72;15588447;28;20045;-65
2021/06/05 01:56:17;;;;;;;1999.90;999.90;;;;;;;17.33;70.79;101537.88;15622194;28;20049;-64
2021/06/05 02:03:52;;;;;;;1999.90;999.90;;;;;;;17.12;71.03;101527.59;15587119;28;20140;-63
2021/06/05 02:11:39;;;;;;;1999.90;999.90;;;;;;;16.66;73.55;101524.16;15603835;28;20160;-63
2021/06/05 02:19:17;;;;;;;1999.90;999.90;;;;;;;16.53;73.56;101518.91;15603309;28;20049;-62
2021/06/05 02:27:00;;;;;;;1999.90;999.90;;;;;;;16.67;73.22;101517.38;15602236;28;20052;-63
2021/06/05 02:34:42;;;;;;;1999.90;999.90;;;;;;;16.36;73.42;101518.00;15602291;28;20044;-64
2021/06/05 02:42:19;;;;;;;1999.90;999.90;;;;;;;16.34;73.84;101505.41;15601743;28;20050;-63
2021/06/05 02:49:51;;;;;;;1999.90;999.90;;;;;;;16.77;72.23;101512.41;15619645;28;20104;-64
2021/06/05 02:57:25;;;;;;;1999.90;999.90;;;;;;;16.47;73.29;101506.25;15600723;28;20491;-64
2021/06/05 03:04:57;;;;;;;1999.90;999.90;;;;;;;16.83;71.73;101525.94;15600740;28;20149;-64
2021/06/05 03:12:31;;;;;;;1999.90;999.90;;;;;;;16.46;72.99;101513.84;15600534;28;20048;-64
2021/06/05 03:20:07;;;;;;;1999.90;999.90;;;;;;;16.80;71.74;101521.00;15598781;28;20037;-64
2021/06/05 03:27:40;;;;;;;1999.90;999.90;;;;;;;16.62;72.67;101511.16;15599025;28;20107;-64
2021/06/05 03:35:13;;;;;;;1999.90;999.90;;;;;;;16.31;73.02;101511.75;15616625;28;20048;-63
2021/06/05 03:42:47;;;;;;;1999.90;999.90;;;;;;;16.52;72.48;101515.25;15615657;28;20391;-63
2021/06/05 03:50:22;;;;;;;1999.90;999.90;;;;;;;16.59;72.25;101511.88;15598006;28;20033;-64
2021/06/05 03:57:59;;;;;;;1999.90;999.90;;;;;;;16.72;72.04;101511.50;15597824;28;20042;-63
2021/06/05 04:05:31;;;;;;;1999.90;999.90;;;;;;;16.89;71.51;101509.59;15614702;28;20071;-63
2021/06/05 04:13:05;;;;;;;1999.90;999.90;;;;;;;17.16;70.72;101514.41;15615059;28;20054;-63
2021/06/05 04:20:39;;;;;;;1999.90;999.90;;;;;;;17.29;70.17;101512.34;15597387;28;20490;-64
2021/06/05 04:28:14;;;;;;;1999.90;999.90;;;;;;;17.58;68.90;101514.78;15620851;28;20056;-63
2021/06/05 04:35:46;;;;;;;1999.90;999.90;;;;;;;17.81;67.99;101514.22;15592169;28;20050;-64
2021/06/05 04:43:20;;;;;;;1999.90;999.90;;;;;;;18.17;67.29;101516.78;15625914;28;20053;-64
2021/06/05 04:50:52;;;;;;;1999.90;999.90;;;;;;;18.43;65.82;101519.00;15626021;28;20058;-64
2021/06/05 04:58:30;;;;;;;1999.90;999.90;;;;;;;18.46;65.53;101529.59;15576321;28;20132;-63
2021/06/05 05:06:03;;;;;;;1999.90;999.90;;;;;;;18.82;65.18;101526.78;15625458;28;20064;-64
2021/06/05 05:13:36;;;;;;;1999.90;999.90;;;;;;;19.13;63.49;101531.50;15607103;28;20057;-64
2021/06/05 05:21:08;;;;;;;;;;;;;;;19.69;61.61;101536.69;15606569;28;20390;-62
2021/06/05 05:28:41;;;;;;;1999.90;999.90;;;;;;;20.44;59.35;101541.72;15623555;28;20409;-64
2021/06/05 05:36:19;;;;;;;1999.90;999.90;;;;;;;20.87;57.77;101546.00;15623414;28;20056;-65
2021/06/05 05:43:52;;;;;;;1999.90;999.90;;;;;;;21.42;56.41;101554.03;15588996;28;20056;-64
2021/06/05 05:51:26;;;;;;;1999.90;999.90;;;;;;;21.85;55.90;101555.31;15588883;28;20049;-64
2021/06/05 05:58:59;;;;;;;1999.90;999.90;;;;;;;21.93;54.02;101542.00;15603721;28;20617;-64
2021/06/05 06:06:32;;;;;;;1999.90;999.90;;;;;;;22.34;53.77;101542.81;15603764;28;20089;-64
2021/06/05 06:14:07;;;;;;;1999.90;999.90;;;;;;;23.51;52.00;101554.06;15603736;28;20037;-64
2021/06/05 06:21:39;;;;;;;1999.90;999.90;;;;;;;23.48;51.36;101544.31;15603068;28;20120;-64
2021/06/05 06:29:14;;;;;;;1999.90;999.90;;;;;;;23.84;48.46;101552.97;15602130;28;20041;-64
2021/06/05 06:36:46;;;;;;;1999.90;999.90;;;;;;;24.48;47.29;101545.28;15584111;28;20502;-65
2021/06/05 06:44:19;;;;;;;1999.90;999.90;;;;;;;24.76;45.65;101549.34;15601313;28;20104;-64
2021/06/05 06:52:10;;;;;;;1999.90;999.90;;;;;;;24.98;45.78;101545.19;15601368;22;20045;-61
2021/06/05 06:59:43;;;;;;;1999.90;999.90;;;;;;;25.41;45.98;101547.09;15567798;28;20061;-64
2021/06/05 07:07:14;;;;;;;1999.90;999.90;;;;;;;25.24;44.17;101554.53;15551344;28;20510;-64
2021/06/05 07:14:47;;;;;;;1999.90;999.90;;;;;;;25.63;43.05;101557.19;15552426;28;20061;-63
2021/06/05 07:22:19;;;;;;;1999.90;999.90;;;;;;;25.47;43.19;101559.75;15554127;28;20046;-62
2021/06/05 07:29:52;;;;;;;1999.90;999.90;;;;;;;26.79;41.96;101558.81;15555900;28;20053;-62
2021/06/05 07:37:24;;;;;;;1999.90;999.90;;;;;;;27.28;41.68;101563.16;15567726;28;20188;-65
2021/06/05 07:44:57;;;;;;;1999.90;999.90;;;;;;;28.02;41.56;101554.78;15551184;28;20073;-64
2021/06/05 07:52:29;;;;;;;1999.90;999.90;;;;;;;28.39;39.40;101548.88;15565025;28;20049;-65
2021/06/05 08:00:04;;;;;;;1999.90;999.90;;;;;;;28.49;36.73;101537.66;15534756;28;20061;-64
2021/06/05 08:07:44;;;;;;;1999.90;999.90;;;;;;;28.26;36.98;101541.31;15568720;28;20183;-65
2021/06/05 08:15:22;;;;;;;1999.90;999.90;;;;;;;28.90;37.07;101537.31;15554363;28;20049;-63
2021/06/05 08:22:56;;;;;;;1999.90;999.90;;;;;;;28.93;36.73;101533.56;15549526;28;20448;-64
2021/06/05 08:30:35;;;;;;;1999.90;999.90;;;;;;;29.28;37.09;101527.09;15550879;28;20057;-64
2021/06/05 08:38:09;;;;;;;1999.90;999.90;;;;;;;29.76;35.72;101525.63;15534744;28;20403;-64
2021/06/05 08:45:41;;;;;;;1999.90;999.90;;;;;;;30.34;38.39;101520.13;15545797;28;20038;-62
2021/06/05 08:53:16;;;;;;;1999.90;999.90;;;;;;;29.63;36.22;101524.72;15529534;28;20482;-64
2021/06/05 09:00:49;;;;;;;1999.90;999.90;;;;;;;28.94;37.08;101518.75;15490345;28;20468;-64
2021/06/05 09:08:22;;;;;;;1999.90;999.90;;;;;;;30.07;35.37;101533.97;15471445;28;20103;-63
2021/06/05 09:16:23;;;;;;;1999.90;999.90;;;;;;;31.23;33.67;101528.41;15510317;28;20422;-65
2021/06/05 09:24:11;;;;;;;1999.90;999.90;;;;;;;30.86;33.99;101529.88;15483925;28;20132;-64
2021/06/05 09:31:58;;;;;;;1999.90;999.90;;;;;;;31.12;33.97;101522.91;15497946;28;20496;-64
2021/06/05 09:39:41;;;;;;;1999.90;999.90;;;;;;;31.31;32.50;101521.16;15490646;28;20056;-63
2021/06/05 09:47:24;;;;;;;1999.90;999.90;;;;;;;31.70;32.74;101524.91;15501743;28;20046;-60
2021/06/05 09:54:58;;;;;;;1999.90;999.90;;;;;;;30.87;34.13;101515.00;15508917;28;20042;-65
2021/06/05 10:02:33;;;;;;;1999.90;999.90;;;;;;;31.53;32.48;101510.56;15515852;28;20428;-65
2021/06/05 10:10:12;;;;;;;1999.90;999.90;;;;;;;32.13;34.72;101513.59;15505382;28;20399;-64
2021/06/05 10:17:53;;;;;;;1999.90;999.90;;;;;;;32.34;31.78;101506.31;15481371;28;20411;-66
2021/06/05 10:25:30;;;;;;;1999.90;999.90;;;;;;;32.38;31.22;101488.84;15513448;28;20109;-64
2021/06/05 10:33:05;;;;;;;1999.90;999.90;;;;;;;33.34;30.55;101499.75;15518051;28;20058;-64
2021/06/05 10:40:38;;;;;;;1999.90;999.90;;;;;;;33.29;34.33;101492.50;15518057;28;20061;-64
2021/06/05 10:48:19;;;;;;;1999.90;999.90;;;;;;;33.87;30.29;101485.28;15542407;28;20129;-63
2021/06/05 10:55:52;;;;;;;;;;;;;;;33.76;29.86;101476.19;15575408;28;20053;-64
2021/06/05 11:03:48;;;;;;;1999.90;999.90;;;;;;;33.34;28.80;101472.91;15569522;28;19979;-65
2021/06/05 11:11:45;;;;;;;1999.90;999.90;;;;;;;34.58;30.72;101476.41;15588150;28;20360;-65
2021/06/05 11:19:32;;;;;;;1999.90;999.90;;;;;;;33.96;28.76;101470.81;15590721;28;20046;-64
2021/06/05 11:27:06;;;;;;;1999.90;999.90;;;;;;;34.22;28.82;101448.22;15558901;28;20046;-65
2021/06/05 11:34:55;;;;;;;1999.90;999.90;;;;;;;35.69;28.80;101445.94;15557734;28;20042;-65
2021/06/05 11:42:55;;;;;;;1999.90;999.90;;;;;;;34.08;28.74;101445.94;15553870;28;20042;-64
2021/06/05 11:50:33;;;;;;;1999.90;999.90;;;;;;;35.45;27.07;101440.09;15555234;28;20104;-64
2021/06/05 11:58:09;;;;;;;1999.90;999.90;;;;;;;35.54;28.35;101425.53;15555662;28;20050;-65
2021/06/05 12:05:43;;;;;;;1999.90;999.90;;;;;;;36.43;24.91;101408.53;15535670;28;20050;-64
2021/06/05 12:13:26;;;;;;;1999.90;999.90;;;;;;;35.76;25.94;101412.84;15552982;28;20057;-65
2021/06/05 12:21:04;;;;;;;1999.90;999.90;;;;;;;37.97;27.20;101409.38;15557022;28;20112;-64
2021/06/05 12:28:38;;;;;;;1999.90;999.90;;;;;;;37.20;23.56;101408.41;15551687;28;20089;-65
2021/06/05 12:36:25;;;;;;;1999.90;999.90;;;;;;;38.91;24.25;101392.25;15556342;28;20061;-64
2021/06/05 12:43:58;;;;;;;1999.90;999.90;;;;;;;39.31;23.76;101384.66;15569746;28;20423;-66
2021/06/05 12:51:34;;;;;;;1999.90;999.90;;;;;;;40.58;21.56;101385.91;15563674;28;20503;-65
2021/06/05 12:59:10;;;;;;;1999.90;999.90;;;;;;;39.53;22.43;101367.28;15576848;22;20045;-63
2021/06/05 13:06:58;;;;;;;1999.90;999.90;;;;;;;35.14;27.66;101352.50;15547888;28;20046;-64
2021/06/05 13:14:36;;;;;;;1999.90;999.90;;;;;;;32.09;31.17;101339.72;15564207;28;20131;-64
2021/06/05 13:22:19;;;;;;;1999.90;999.90;;;;;;;32.56;30.30;101326.47;15545727;28;20053;-65
2021/06/05 13:29:51;;;;;;;1999.90;999.90;;;;;;;32.30;31.54;101334.44;15562985;28;20046;-64
2021/06/05 13:37:26;;;;;;;1999.90;999.90;;;;;;;31.47;31.31;101322.09;15562560;28;20046;-65
2021/06/05 13:44:58;;;;;;;1999.90;999.90;;;;;;;32.11;30.30;101314.09;15562587;28;20046;-64
2021/06/05 13:52:33;;;;;;;1999.90;999.90;;;;;;;31.24;31.16;101308.84;15528593;28;20057;-64
2021/06/05 14:00:07;;;;;;;1999.90;999.90;;;;;;;31.42;30.99;101299.59;15542829;28;20133;-66
2021/06/05 14:07:45;;;;;;;1999.90;999.90;;;;;;;30.88;32.35;101274.59;15570179;28;20426;-64
2021/06/05 14:15:22;;;;;;;1999.90;999.90;;;;;;;31.21;31.37;101275.19;15587471;28;20069;-65
2021/06/05 14:22:55;;;;;;;1999.90;999.90;;;;;;;31.09;31.71;101272.28;15525428;28;20104;-64
2021/06/05 14:30:30;;;;;;;1999.90;999.90;;;;;;;30.87;31.87;101281.63;15526147;28;20065;-64
2021/06/05 14:38:04;;;;;;;1999.90;999.90;;;;;;;30.18;31.88;101270.53;15542000;28;20410;-66
2021/06/05 14:45:37;;;;;;;1999.90;999.90;;;;;;;30.21;32.67;101280.31;15558443;28;20502;-66
2021/06/05 14:53:12;;;;;;;1999.90;999.90;;;;;;;30.61;30.61;101271.31;15500167;28;20442;-64
2021/06/05 15:00:44;;;;;;;1999.90;999.90;;;;;;;30.37;31.93;101279.47;15557591;28;20048;-63
2021/06/05 15:08:16;;;;;;;1999.90;999.90;;;;;;;29.98;32.87;101286.31;15557604;28;20050;-65
2021/06/05 15:15:48;;;;;;;1999.90;999.90;;;;;;;29.88;31.71;101277.53;15540137;28;20408;-64
2021/06/05 15:23:21;;;;;;;;;;;;;;;29.90;31.78;101275.00;15539258;28;20077;-65
2021/06/05 15:30:54;;;;;;;1999.90;999.90;;;;;;;30.29;30.97;101263.66;15538020;28;19921;-65
2021/06/05 15:38:28;;;;;;;1999.90;999.90;;;;;;;30.37;31.58;101267.94;15557019;28;20049;-64
2021/06/05 15:46:00;;;;;;;1999.90;999.90;;;;;;;30.07;32.00;101275.00;15555650;28;20054;-66
2021/06/05 15:53:36;;;;;;;1999.90;999.90;;;;;;;29.80;33.24;101272.41;15537004;28;20057;-65
2021/06/05 16:01:09;;;;;;;1999.90;999.90;;;;;;;29.67;32.26;101277.31;15537342;28;20045;-65
2021/06/05 16:08:43;;;;;;;1999.90;999.90;;;;;;;29.83;32.26;101262.91;15554311;28;20045;-64
2021/06/05 16:16:17;;;;;;;1999.90;999.90;;;;;;;29.65;32.87;101277.75;15534129;28;20056;-64
2021/06/05 16:23:50;;;;;;;1999.90;999.90;;;;;;;29.43;32.04;101273.81;15541866;28;20053;-64
2021/06/05 16:31:24;;;;;;;1999.90;999.90;;;;;;;29.03;33.46;101260.44;15566370;28;20081;-65
2021/06/05 16:38:57;;;;;;;1999.90;999.90;;;;;;;28.71;32.99;101264.03;15548554;28;20050;-65
2021/06/05 16:46:29;;;;;;;1999.90;999.90;;;;;;;28.79;33.83;101275.34;15548511;28;20077;-65
2021/06/05 16:54:02;;;;;;;1999.90;999.90;;;;;;;28.89;34.77;101263.66;15547804;28;20391;-64
2021/06/05 17:01:36;;;;;;;1999.90;999.90;;;;;;;28.60;33.60;101274.94;15547273;28;20124;-64
2021/06/05 17:09:13;;;;;;;1999.90;999.90;;;;;;;28.53;34.27;101282.91;15564124;28;20049;-64
2021/06/05 17:16:44;;;;;;;1999.90;999.90;;;;;;;28.80;34.62;101283.53;15546197;28;20061;-65
2021/06/05 17:24:17;;;;;;;1999.90;999.90;;;;;;;28.28;34.73;101283.47;15529442;28;20517;-64
2021/06/05 17:31:49;;;;;;;1999.90;999.90;;;;;;;28.30;35.15;101284.63;15563705;28;20045;-64
2021/06/05 17:39:22;;;;;;;1999.90;999.90;;;;;;;28.25;36.04;101279.38;15561422;28;20045;-64
2021/06/05 17:46:53;;;;;;;1999.90;999.90;;;;;;;28.11;36.32;101291.94;15561817;28;20048;-64
2021/06/05 17:54:28;;;;;;;1999.90;999.90;;;;;;;28.04;38.47;101285.56;15544148;28;20046;-64
2021/06/05 18:02:02;;;;;;;1999.90;999.90;;;;;;;27.66;38.18;101280.13;15561413;28;20049;-64
2021/06/05 18:09:35;;;;;;;1999.90;999.90;;;;;;;27.57;38.43;101283.53;15543410;28;20065;-64
2021/06/05 18:17:09;;;;;;;1999.90;999.90;;;;;;;27.53;37.97;101287.72;15559863;28;20050;-64
2021/06/05 18:24:45;;;;;;;1999.90;999.90;;;;;;;27.15;39.56;101284.25;15560129;28;20053;-65
2021/06/05 18:32:17;;;;;;;1999.90;999.90;;;;;;;26.92;40.09;101285.81;15559057;28;20061;-65
2021/06/05 18:39:51;;;;;;;1999.90;999.90;;;;;;;26.73;38.69;101284.44;15528886;28;20038;-64
2021/06/05 18:47:22;;;;;;;1999.90;999.90;;;;;;;26.54;40.61;101287.97;15542030;28;20073;-64
2021/06/05 18:54:56;;;;;;;1999.90;999.90;;;;;;;26.44;41.50;101283.22;15541037;28;20140;-65
2021/06/05 19:02:27;;;;;;;1999.90;999.90;;;;;;;26.20;42.45;101296.56;15542235;28;20438;-66
2021/06/05 19:10:00;;;;;;;1999.90;999.90;;;;;;;26.09;42.35;101305.28;15562588;28;20129;-66
2021/06/05 19:17:33;;;;;;;1999.90;999.90;;;;;;;25.77;42.41;101313.38;15545523;28;20042;-65
2021/06/05 19:25:08;;;;;;;1999.90;999.90;;;;;;;25.74;42.40;101315.06;15567024;28;20077;-68
2021/06/05 19:32:42;;;;;;;1999.90;999.90;;;;;;;25.48;42.99;101322.19;15547512;28;20109;-66
2021/06/05 19:40:18;;;;;;;1999.90;999.90;;;;;;;25.39;42.43;101329.59;15562351;28;20060;-64
2021/06/05 19:47:50;;;;;;;1999.90;999.90;;;;;;;25.33;45.00;101343.53;15544093;28;20037;-66
2021/06/05 19:55:25;;;;;;;1999.90;999.90;;;;;;;25.21;45.18;101350.53;15562944;28;20056;-67
2021/06/05 20:02:58;;;;;;;1999.90;999.90;;;;;;;24.97;44.54;101365.75;15526115;28;20053;-65
2021/06/05 20:10:33;;;;;;;1999.90;999.90;;;;;;;24.84;43.66;101353.19;15542263;28;20049;-65
2021/06/05 20:18:06;;;;;;;1999.90;999.90;;;;;;;24.92;43.66;101366.22;15541582;28;20606;-67
2021/06/05 20:25:40;;;;;;;1999.90;999.90;;;;;;;24.72;42.91;101366.72;15539772;28;20050;-64
2021/06/05 20:33:29;;;;;;;;;;;;;;;24.67;43.74;101361.41;15558587;28;20085;-66
2021/06/05 20:41:21;;;;;;;1999.90;999.90;;;;;;;24.38;45.19;101369.28;15556139;28;19928;-65
2021/06/05 20:48:53;;;;;;;1999.90;999.90;;;;;;;24.25;44.76;101364.41;15538605;28;20457;-65
2021/06/05 20:56:26;;;;;;;1999.90;999.90;;;;;;;24.44;45.47;101376.19;15560488;28;20522;-65
2021/06/05 21:03:59;;;;;;;1999.90;999.90;;;;;;;24.26;46.41;101374.59;15541662;28;20522;-64
2021/06/05 21:11:33;;;;;;;1999.90;999.90;;;;;;;24.03;47.53;101377.91;15546680;28;20110;-66
2021/06/05 21:19:07;;;;;;;1999.90;999.90;;;;;;;23.67;47.69;101388.53;15567048;28;20133;-66
2021/06/05 21:26:40;;;;;;;1999.90;999.90;;;;;;;23.92;48.21;101397.88;15548987;28;20045;-65
2021/06/05 21:34:14;;;;;;;1999.90;999.90;;;;;;;23.81;48.83;101397.88;15546814;28;20042;-66
2021/06/05 21:41:47;;;;;;;1999.90;999.90;;;;;;;23.85;47.27;101409.25;15520538;28;20054;-66
2021/06/05 21:49:19;;;;;;;1999.90;999.90;;;;;;;23.79;49.27;101414.56;15545159;28;20037;-65
2021/06/05 21:56:52;;;;;;;1999.90;999.90;;;;;;;23.48;49.41;101419.00;15505785;28;20068;-66
2021/06/05 22:04:27;;;;;;;1999.90;999.90;;;;;;;23.40;50.59;101411.66;15541713;28;20057;-66
2021/06/05 22:12:05;;;;;;;1999.90;999.90;;;;;;;23.16;52.81;101421.78;15544354;28;20041;-66
2021/06/05 22:19:37;;;;;;;1999.90;999.90;;;;;;;22.85;53.42;101420.44;15560449;28;20042;-66
2021/06/05 22:27:11;;;;;;;1999.90;999.90;;;;;;;22.73;52.64;101430.13;15561967;28;20514;-66
2021/06/05 22:34:42;;;;;;;1999.90;999.90;;;;;;;22.45;53.28;101427.13;15561387;28;20129;-66
2021/06/05 22:42:15;;;;;;;1999.90;999.90;;;;;;;22.14;54.51;101437.06;15545836;28;20470;-66
2021/06/05 22:49:47;;;;;;;;;;;;;;;22.07;55.24;101425.66;15564528;28;20081;-66
2021/06/05 22:57:20;;;;;;;1999.90;999.90;;;;;;;21.66;56.61;101410.69;15552272;28;20371;-66
2021/06/05 23:04:51;;;;;;;;;;;;;;;21.35;57.13;101404.31;15561821;28;20050;-66
2021/06/05 23:12:24;;;;;;;1999.90;999.90;;;;;;;21.41;56.86;101410.44;15539821;28;19928;-66
2021/06/05 23:19:58;;;;;;;1999.90;999.90;;;;;;;21.37;56.95;101404.75;15538806;28;20042;-66
2021/06/05 23:27:31;;;;;;;1999.90;999.90;;;;;;;21.23;56.85;101413.88;15524536;28;20133;-65
2021/06/05 23:35:04;;;;;;;;;;;;;;;21.16;57.49;101416.66;15556647;28;20054;-65
2021/06/05 23:42:37;;;;;;;1999.90;999.90;;;;;;;20.85;57.05;101408.59;15525387;28;19921;-67
2021/06/05 23:50:10;;;;;;;;;;;;;;;20.73;56.61;101415.31;15542323;28;20041;-65
2021/06/05 23:57:43;;;;;;;1999.90;999.90;;;;;;;20.68;57.22;101410.81;15558428;28;19928;-66
